Time;durP1;ratioP1;P1;durP2;ratioP2;P2;SDS_P1;SDS_P2;PMS_P1;PMS_P2;Temp;Humidity;BMP_temperature;BMP_pressure;BME280_temperature;BME280_humidity;BME280_pressure;Samples;Min_cycle;Max_cycle;Signal;HPM_P1;HPM_P2
2022/11/27 00:02:17;;;;;;;49.33;25.53;;;;;;;2.68;100.00;95557.38;5039469;28;20733;-79
2022/11/27 00:04:44;;;;;;;42.60;23.57;;;;;;;2.73;100.00;95562.03;5037490;28;20661;-79
2022/11/27 00:07:11;;;;;;;43.03;23.27;;;;;;;2.72;100.00;95570.69;5037809;28;20202;-79
2022/11/27 00:09:38;;;;;;;43.63;24.37;;;;;;;2.72;100.00;95574.06;5031369;28;20201;-84
2022/11/27 00:12:05;;;;;;;43.73;23.27;;;;;;;2.75;100.00;95578.91;5037800;28;20202;-81
2022/11/27 00:14:32;;;;;;;43.67;23.40;;;;;;;2.73;100.00;95577.44;5038346;28;20202;-79
2022/11/27 00:17:00;;;;;;;44.03;24.97;;;;;;;2.68;100.00;95580.47;5037927;28;20191;-80
2022/11/27 00:19:28;;;;;;;45.30;22.43;;;;;;;2.74;100.00;95579.06;5033607;28;20196;-78
2022/11/27 00:21:54;;;;;;;42.57;22.67;;;;;;;2.77;100.00;95571.84;5036288;28;20226;-78
2022/11/27 00:24:21;;;;;;;43.83;22.93;;;;;;;2.76;100.00;95577.97;5032849;28;20203;-79
2022/11/27 00:26:48;;;;;;;37.13;21.33;;;;;;;2.80;100.00;95576.69;5041744;28;20218;-81
2022/11/27 00:29:15;;;;;;;40.63;21.33;;;;;;;2.87;100.00;95576.91;5033470;28;21583;-80
2022/11/27 00:31:42;;;;;;;38.93;21.20;;;;;;;2.81;100.00;95586.00;5035915;28;20206;-79
2022/11/27 00:34:11;;;;;;;41.37;21.67;;;;;;;2.66;100.00;95574.66;5040436;28;20198;-76
2022/11/27 00:36:38;;;;;;;43.83;22.80;;;;;;;2.70;100.00;95578.53;5031299;28;20191;-77
2022/11/27 00:39:05;;;;;;;41.60;22.17;;;;;;;2.78;100.00;95591.44;5036035;28;20221;-79
2022/11/27 00:41:32;;;;;;;45.60;23.57;;;;;;;2.73;100.00;95598.78;5030790;28;20229;-78
2022/11/27 00:43:59;;;;;;;42.77;22.87;;;;;;;2.79;100.00;95593.06;5030530;28;20633;-79
2022/11/27 00:46:28;;;;;;;40.30;23.07;;;;;;;2.81;100.00;95586.00;5035312;28;20203;-81
2022/11/27 00:48:55;;;;;;;42.43;23.20;;;;;;;2.79;100.00;95597.38;5036498;28;20211;-79
2022/11/27 00:51:24;;;;;;;44.53;22.60;;;;;;;2.80;100.00;95589.53;5035360;28;20195;-79
2022/11/27 00:53:51;;;;;;;45.83;23.70;;;;;;;2.75;100.00;95602.00;5029453;28;20729;-80
2022/11/27 00:56:22;;;;;;;46.27;23.47;;;;;;;2.69;100.00;95597.44;5030138;28;20193;-79
2022/11/27 00:58:49;;;;;;;45.00;23.37;;;;;;;2.71;100.00;95597.31;5035039;28;20205;-81
2022/11/27 01:01:19;;;;;;;43.10;23.57;;;;;;;2.69;100.00;95597.44;5032591;28;20222;-79
2022/11/27 01:03:47;;;;;;;44.73;23.57;;;;;;;2.67;100.00;95601.94;5033354;28;20213;-79
2022/11/27 01:06:14;;;;;;;41.73;22.97;;;;;;;2.65;100.00;95585.88;5035918;28;20212;-79
2022/11/27 01:08:43;;;;;;;41.93;23.13;;;;;;;2.62;100.00;95591.31;5038328;28;20206;-79
2022/11/27 01:11:14;;;;;;;41.90;22.90;;;;;;;2.56;100.00;95603.91;5037491;28;20206;-79
2022/11/27 01:13:41;;;;;;;47.90;23.67;;;;;;;2.56;100.00;95591.88;5039540;28;20209;-79
2022/11/27 01:16:11;;;;;;;43.90;23.10;;;;;;;2.47;100.00;95581.69;5036840;28;20722;-80
2022/11/27 01:18:39;;;;;;;42.83;23.47;;;;;;;2.46;100.00;95573.19;5029172;28;20256;-79
2022/11/27 01:21:06;;;;;;;45.33;24.73;;;;;;;2.41;100.00;95560.00;5031649;28;20231;-79
2022/11/27 01:23:33;;;;;;;50.13;24.73;;;;;;;2.49;100.00;95572.88;5034303;28;20958;-80
2022/11/27 01:26:02;;;;;;;47.27;24.70;;;;;;;2.46;100.00;95569.78;5031884;28;20260;-80
2022/11/27 01:28:29;;;;;;;52.83;26.27;;;;;;;2.45;100.00;95574.16;5035979;28;20198;-79
2022/11/27 01:30:56;;;;;;;54.70;26.83;;;;;;;2.47;100.00;95571.41;5035751;28;20206;-79
2022/11/27 01:33:23;;;;;;;52.07;26.70;;;;;;;2.35;100.00;95554.63;5037699;28;20600;-80
2022/11/27 01:35:56;;;;;;;51.90;26.87;;;;;;;2.39;100.00;95571.34;5034236;28;20202;-80
2022/11/27 01:38:23;;;;;;;50.50;26.90;;;;;;;2.41;100.00;95567.69;5032633;28;20269;-79
2022/11/27 01:40:55;;;;;;;55.20;27.97;;;;;;;2.35;100.00;95552.06;5041635;28;20213;-80
2022/11/27 01:43:41;;;;;;;50.53;26.63;;;;;;;2.42;100.00;95559.03;5035871;28;20728;-78
2022/11/27 01:46:28;;;;;;;46.00;25.40;;;;;;;2.44;100.00;95557.13;5033990;28;20322;-78
2022/11/27 01:48:59;;;;;;;48.70;23.93;;;;;;;2.39;100.00;95566.22;5039687;28;20229;-79
2022/11/27 01:51:26;;;;;;;45.70;24.27;;;;;;;2.39;100.00;95559.34;5035460;28;20190;-78
2022/11/27 01:53:54;;;;;;;53.17;27.47;;;;;;;2.40;100.00;95550.66;5037221;28;20202;-79
2022/11/27 01:56:23;;;;;;;50.63;27.50;;;;;;;2.41;100.00;95554.03;5032743;28;20273;-79
2022/11/27 01:58:52;;;;;;;54.93;30.50;;;;;;;2.41;100.00;95560.00;5040506;28;20194;-78
2022/11/27 02:01:19;;;;;;;58.43;30.80;;;;;;;2.43;100.00;95560.63;5039755;28;20240;-79
2022/11/27 02:03:46;;;;;;;60.67;29.50;;;;;;;2.44;100.00;95558.88;5031747;28;20217;-79
2022/11/27 02:06:13;;;;;;;53.73;28.00;;;;;;;2.51;100.00;95563.28;5030140;28;20672;-78
2022/11/27 02:08:41;;;;;;;48.30;26.37;;;;;;;2.50;100.00;95550.59;5033810;28;20203;-78
2022/11/27 02:11:15;;;;;;;50.63;27.07;;;;;;;2.53;100.00;95563.16;5032311;28;20214;-79
2022/11/27 02:13:46;;;;;;;40.87;22.70;;;;;;;2.56;100.00;95560.28;5034995;28;20206;-80
2022/11/27 02:16:23;;;;;;;46.03;23.30;;;;;;;2.58;100.00;95558.38;5040493;28;20252;-80
2022/11/27 02:18:57;;;;;;;42.33;23.40;;;;;;;2.67;100.00;95555.75;5037055;28;20261;-79
2022/11/27 02:21:36;;;;;;;47.83;24.60;;;;;;;2.67;100.00;95555.75;5029613;28;20213;-80
2022/11/27 02:24:20;;;;;;;43.77;23.63;;;;;;;2.69;100.00;95558.97;5027561;28;20680;-79
2022/11/27 02:27:12;;;;;;;43.43;22.07;;;;;;;2.77;100.00;95561.59;5042097;28;20208;-79
2022/11/27 02:29:42;;;;;;;43.90;22.17;;;;;;;2.79;100.00;95561.47;5030716;28;20567;-80
2022/11/27 02:32:15;;;;;;;45.50;21.70;;;;;;;2.81;100.00;95564.66;5034801;28;20279;-80
2022/11/27 02:34:49;;;;;;;40.77;21.20;;;;;;;2.80;100.00;95563.06;5036339;28;20210;-80
2022/11/27 02:37:21;;;;;;;42.83;22.00;;;;;;;2.83;100.00;95557.63;5036686;28;20202;-79
2022/11/27 02:39:56;;;;;;;44.57;22.53;;;;;;;2.81;100.00;95568.06;5035850;28;20254;-80
2022/11/27 02:42:23;;;;;;;44.87;22.40;;;;;;;2.71;100.00;95535.75;5043454;28;20220;-79
2022/11/27 02:45:00;;;;;;;47.67;22.10;;;;;;;2.73;100.00;95542.31;5037983;28;20194;-80
2022/11/27 02:47:28;;;;;;;47.17;22.97;;;;;;;2.80;100.00;95561.28;5034448;28;20198;-80
2022/11/27 02:49:56;;;;;;;45.00;22.97;;;;;;;2.81;100.00;95569.81;5029767;28;20203;-79
2022/11/27 02:52:25;;;;;;;43.53;21.97;;;;;;;2.77;100.00;95555.69;5033400;28;20228;-78
2022/11/27 02:54:56;;;;;;;43.47;22.10;;;;;;;2.78;100.00;95559.84;5038206;28;20938;-79
2022/11/27 02:57:25;;;;;;;43.60;23.60;;;;;;;2.71;100.00;95561.41;5034071;28;20595;-78
2022/11/27 02:59:55;;;;;;;44.60;23.23;;;;;;;2.84;100.00;95562.63;5039528;28;20623;-80
2022/11/27 03:02:28;;;;;;;47.80;23.70;;;;;;;2.90;100.00;95565.53;5042404;28;20356;-79
2022/11/27 03:04:59;;;;;;;41.87;21.40;;;;;;;2.96;100.00;95564.94;5047722;28;20244;-79
2022/11/27 03:07:32;;;;;;;43.97;22.27;;;;;;;2.98;100.00;95571.56;5042311;28;20224;-79
2022/11/27 03:10:06;;;;;;;47.67;23.87;;;;;;;2.98;100.00;95573.31;5037820;28;20202;-80
2022/11/27 03:12:32;;;;;;;46.87;22.23;;;;;;;3.01;100.00;95578.94;5040744;28;20191;-80
2022/11/27 03:15:01;;;;;;;46.83;23.23;;;;;;;2.97;100.00;95579.41;5038360;28;20202;-79
2022/11/27 03:17:40;;;;;;;39.47;21.03;;;;;;;2.96;100.00;95588.88;5034241;28;20283;-80
2022/11/27 03:20:14;;;;;;;39.33;21.60;;;;;;;2.81;100.00;95565.50;5041470;28;20198;-79
2022/11/27 03:22:41;;;;;;;41.27;21.80;;;;;;;2.83;100.00;95580.72;5037581;28;20257;-79
2022/11/27 03:25:08;;;;;;;40.23;21.27;;;;;;;2.83;100.00;95575.59;5035643;28;20210;-78
2022/11/27 03:27:41;;;;;;;41.10;20.43;;;;;;;2.90;100.00;95580.94;5033880;28;20213;-79
2022/11/27 03:30:11;;;;;;;39.90;20.57;;;;;;;2.97;100.00;95580.22;5038989;28;20202;-80
2022/11/27 03:32:37;;;;;;;40.67;20.67;;;;;;;2.98;100.00;95581.00;5031842;28;20701;-80
2022/11/27 03:35:08;;;;;;;41.73;21.30;;;;;;;2.95;100.00;95571.84;5033162;28;20195;-80
2022/11/27 03:37:35;;;;;;;38.83;21.40;;;;;;;2.97;100.00;95577.66;5036232;28;20207;-77
2022/11/27 03:40:02;;;;;;;45.70;22.30;;;;;;;3.01;100.00;95573.81;5041890;28;20205;-78
2022/11/27 03:42:33;;;;;;;42.93;21.97;;;;;;;2.99;100.00;95580.06;5041628;28;20283;-77
2022/11/27 03:45:08;;;;;;;41.90;23.03;;;;;;;2.99;100.00;95573.16;5034529;28;20629;-77
2022/11/27 03:47:45;;;;;;;44.80;23.07;;;;;;;2.95;100.00;95576.97;5035983;28;20213;-78
2022/11/27 03:50:28;;;;;;;41.20;22.03;;;;;;;2.96;100.00;95576.03;5039604;28;20206;-77
2022/11/27 03:53:07;;;;;;;43.90;21.83;;;;;;;3.03;100.00;95571.91;5034761;28;20187;-77
2022/11/27 03:55:42;;;;;;;47.30;23.87;;;;;;;3.02;100.00;95572.88;5035867;28;20230;-78
2022/11/27 03:58:12;;;;;;;47.63;23.73;;;;;;;2.98;100.00;95574.13;5039984;28;20194;-77
2022/11/27 04:00:42;;;;;;;48.30;24.70;;;;;;;2.95;100.00;95559.00;5042376;28;20205;-79
2022/11/27 04:03:12;;;;;;;43.13;23.43;;;;;;;3.00;100.00;95566.28;5035770;28;20226;-79
2022/11/27 04:05:39;;;;;;;45.60;23.57;;;;;;;2.99;100.00;95565.47;5033090;28;20202;-79
2022/11/27 04:08:06;;;;;;;43.80;24.20;;;;;;;2.98;100.00;95565.59;5046527;28;20198;-79
2022/11/27 04:10:33;;;;;;;47.53;25.20;;;;;;;3.01;100.00;95578.94;5036817;28;20218;-78
2022/11/27 04:13:00;;;;;;;55.50;27.37;;;;;;;3.02;100.00;95562.59;5038217;28;20203;-80
2022/11/27 04:15:27;;;;;;;53.93;28.30;;;;;;;2.97;100.00;95551.97;5036605;28;20198;-78
2022/11/27 04:17:53;;;;;;;58.03;28.77;;;;;;;2.95;100.00;95551.31;5039042;28;20199;-79
2022/11/27 04:20:22;;;;;;;64.03;30.43;;;;;;;2.84;100.00;95554.94;5036208;28;20202;-80
2022/11/27 04:22:48;;;;;;;53.77;26.43;;;;;;;2.68;100.00;95557.38;5035149;28;20222;-79
2022/11/27 04:25:15;;;;;;;51.63;28.17;;;;;;;2.50;100.00;95558.31;5034508;28;20273;-79
2022/11/27 04:27:42;;;;;;;59.53;29.87;;;;;;;2.39;100.00;95555.97;5036108;28;20206;-80
2022/11/27 04:30:10;;;;;;;55.83;28.10;;;;;;;2.40;100.00;95560.94;5041383;28;20212;-79
2022/11/27 04:32:37;;;;;;;53.97;27.47;;;;;;;2.37;100.00;95561.22;5035405;28;20221;-80
2022/11/27 04:35:04;;;;;;;53.10;27.47;;;;;;;2.29;100.00;95553.44;5040653;28;20186;-79
2022/11/27 04:37:32;;;;;;;50.87;27.57;;;;;;;2.40;100.00;95566.06;5035213;28;20270;-79
2022/11/27 04:39:59;;;;;;;50.47;26.63;;;;;;;2.40;100.00;95568.63;5039776;28;20201;-78
2022/11/27 04:42:27;;;;;;;50.07;26.33;;;;;;;2.52;100.00;95576.91;5042340;28;20280;-78
2022/11/27 04:44:54;;;;;;;57.87;27.83;;;;;;;2.52;100.00;95577.72;5032922;28;20264;-78
2022/11/27 04:47:21;;;;;;;51.13;26.80;;;;;;;2.46;100.00;95575.75;5037217;28;20199;-77
2022/11/27 04:49:48;;;;;;;54.00;28.13;;;;;;;2.26;100.00;95576.81;5030261;28;20199;-78
2022/11/27 04:52:15;;;;;;;51.43;27.37;;;;;;;2.15;100.00;95575.25;5038494;28;20209;-78
2022/11/27 04:54:43;;;;;;;57.47;28.30;;;;;;;2.20;100.00;95579.94;5039590;28;20194;-77
2022/11/27 04:57:10;;;;;;;55.27;28.47;;;;;;;2.28;100.00;95585.97;5040796;28;20232;-78
2022/11/27 04:59:37;;;;;;;48.90;25.33;;;;;;;2.40;100.00;95580.63;5038571;28;21373;-79
2022/11/27 05:02:04;;;;;;;49.60;25.20;;;;;;;2.36;100.00;95574.19;5033649;28;20869;-80
2022/11/27 05:04:31;;;;;;;50.87;25.97;;;;;;;2.41;100.00;95574.56;5035018;28;20201;-79
2022/11/27 05:06:58;;;;;;;47.93;25.93;;;;;;;2.48;100.00;95568.69;5040433;28;20202;-80
2022/11/27 05:09:24;;;;;;;50.77;27.03;;;;;;;2.63;100.00;95566.44;5036201;28;20237;-79
2022/11/27 05:11:53;;;;;;;49.40;25.93;;;;;;;2.48;100.00;95565.34;5032521;28;20202;-79
2022/11/27 05:14:21;;;;;;;50.13;25.63;;;;;;;2.41;100.00;95565.13;5038034;28;20195;-77
2022/11/27 05:16:50;;;;;;;51.97;26.03;;;;;;;2.47;100.00;95579.13;5029515;28;20646;-78
2022/11/27 05:19:18;;;;;;;66.10;29.87;;;;;;;2.26;100.00;95569.13;5033201;28;20632;-80
2022/11/27 05:21:46;;;;;;;56.93;27.57;;;;;;;2.05;100.00;95555.78;5037184;28;20319;-78
2022/11/27 05:24:15;;;;;;;55.50;28.73;;;;;;;2.21;100.00;95572.13;5041085;28;20241;-79
2022/11/27 05:26:42;;;;;;;61.20;30.23;;;;;;;2.26;100.00;95581.94;5029920;28;20191;-79
2022/11/27 05:29:11;;;;;;;56.77;28.73;;;;;;;2.40;100.00;95584.00;5037862;28;20197;-79
2022/11/27 05:31:38;;;;;;;62.83;30.83;;;;;;;2.35;100.00;95582.84;5037093;28;20187;-80
2022/11/27 05:34:05;;;;;;;67.07;31.47;;;;;;;2.35;100.00;95588.78;5037781;28;20202;-80
2022/11/27 05:36:33;;;;;;;58.77;28.77;;;;;;;2.38;100.00;95587.69;5036021;28;20662;-79
2022/11/27 05:39:01;;;;;;;61.43;30.40;;;;;;;2.36;100.00;95574.19;5031401;28;20199;-79
2022/11/27 05:41:28;;;;;;;68.70;31.40;;;;;;;2.47;100.00;95584.25;5032630;28;20238;-80
2022/11/27 05:43:54;;;;;;;58.67;29.47;;;;;;;2.55;100.00;95589.44;5034442;28;20226;-80
2022/11/27 05:46:23;;;;;;;53.27;26.77;;;;;;;2.51;100.00;95590.72;5035300;28;20244;-79
2022/11/27 05:48:50;;;;;;;52.97;25.57;;;;;;;2.58;100.00;95589.97;5036513;28;20683;-79
2022/11/27 05:51:17;;;;;;;48.07;25.17;;;;;;;2.70;100.00;95598.25;5038060;28;20654;-79
2022/11/27 05:53:44;;;;;;;49.53;25.43;;;;;;;2.73;100.00;95593.66;5034241;28;20217;-78
2022/11/27 05:56:13;;;;;;;52.77;24.70;;;;;;;2.76;100.00;95587.41;5034666;28;20243;-78
2022/11/27 05:58:41;;;;;;;48.33;24.50;;;;;;;2.80;100.00;95591.28;5031323;28;20888;-80
2022/11/27 06:01:08;;;;;;;45.67;24.20;;;;;;;2.82;100.00;95589.41;5030203;28;20206;-80
2022/11/27 06:03:38;;;;;;;44.93;23.37;;;;;;;2.82;100.00;95607.34;5030451;28;20217;-81
2022/11/27 06:06:06;;;;;;;46.40;23.57;;;;;;;2.86;100.00;95608.66;5037931;28;20283;-80
2022/11/27 06:08:33;;;;;;;47.00;23.83;;;;;;;2.92;100.00;95608.06;5032885;28;20284;-81
2022/11/27 06:11:00;;;;;;;46.50;24.20;;;;;;;2.89;100.00;95600.66;5032936;28;20203;-80
2022/11/27 06:13:27;;;;;;;47.93;24.70;;;;;;;2.92;100.00;95607.25;5034433;28;20275;-80
2022/11/27 06:15:53;;;;;;;44.70;23.07;;;;;;;3.02;100.00;95603.69;5032316;28;20202;-80
2022/11/27 06:18:20;;;;;;;45.73;23.53;;;;;;;2.98;100.00;95598.97;5035943;28;20202;-81
2022/11/27 06:20:48;;;;;;;43.90;23.23;;;;;;;3.00;100.00;95608.13;5035415;28;20652;-79
2022/11/27 06:23:15;;;;;;;50.03;25.03;;;;;;;2.94;100.00;95607.94;5032216;28;20240;-79
2022/11/27 06:25:42;;;;;;;47.53;23.43;;;;;;;2.99;100.00;95610.88;5034418;28;20609;-80
2022/11/27 06:28:09;;;;;;;43.67;23.47;;;;;;;3.04;100.00;95611.22;5038462;28;20382;-81
2022/11/27 06:30:37;;;;;;;45.87;24.07;;;;;;;3.13;100.00;95607.78;5030268;28;20194;-80
2022/11/27 06:33:04;;;;;;;44.53;23.50;;;;;;;3.20;100.00;95608.81;5033134;28;20246;-81
2022/11/27 06:35:31;;;;;;;51.63;25.03;;;;;;;3.21;100.00;95602.69;5033903;28;20257;-80
2022/11/27 06:37:59;;;;;;;44.67;24.07;;;;;;;3.19;100.00;95602.03;5036733;28;20211;-81
2022/11/27 06:40:26;;;;;;;46.20;23.27;;;;;;;3.26;100.00;95603.06;5037495;28;20202;-79
2022/11/27 06:42:53;;;;;;;53.90;25.00;;;;;;;3.36;100.00;95620.00;5041876;28;20692;-81
2022/11/27 06:45:20;;;;;;;52.13;25.60;;;;;;;3.35;100.00;95607.28;5035083;28;20585;-80
2022/11/27 06:47:47;;;;;;;45.43;24.47;;;;;;;3.32;100.00;95613.53;5035945;28;20195;-81
2022/11/27 06:50:13;;;;;;;56.80;26.73;;;;;;;3.28;100.00;95619.13;5039206;28;20210;-80
2022/11/27 06:52:40;;;;;;;48.37;24.70;;;;;;;3.34;100.00;95614.22;5037871;28;20201;-81
2022/11/27 06:55:09;;;;;;;46.77;24.27;;;;;;;3.36;100.00;95614.84;5038975;28;20195;-81
2022/11/27 06:57:35;;;;;;;44.67;25.10;;;;;;;3.29;100.00;95611.25;5038482;28;20194;-81
2022/11/27 07:00:03;;;;;;;48.87;24.73;;;;;;;3.27;100.00;95602.09;5035588;28;20222;-86
2022/11/27 07:02:29;;;;;;;45.00;24.20;;;;;;;3.42;100.00;95616.00;5038004;28;20870;-81
2022/11/27 07:04:56;;;;;;;43.73;24.13;;;;;;;3.45;100.00;95620.84;5033168;28;20314;-83
2022/11/27 07:07:23;;;;;;;47.30;22.97;;;;;;;3.46;100.00;95612.19;5033158;28;20191;-82
2022/11/27 07:09:50;;;;;;;47.90;24.23;;;;;;;3.49;100.00;95595.69;5033573;28;20220;-81
2022/11/27 07:12:18;;;;;;;39.97;22.00;;;;;;;3.62;100.00;95606.34;5037183;28;20230;-82
2022/11/27 07:14:45;;;;;;;45.50;24.63;;;;;;;3.68;100.00;95605.75;5036878;28;20748;-82
2022/11/27 07:17:12;;;;;;;48.80;24.10;;;;;;;3.67;100.00;95594.66;5038340;28;20214;-82
2022/11/27 07:19:38;;;;;;;43.23;23.17;;;;;;;3.70;100.00;95609.75;5033592;28;20274;-81
2022/11/27 07:22:05;;;;;;;40.97;22.67;;;;;;;3.70;100.00;95596.91;5036175;28;20203;-86
2022/11/27 07:24:32;;;;;;;45.30;22.30;;;;;;;3.78;100.00;95609.81;5035325;28;20771;-82
2022/11/27 07:26:59;;;;;;;38.07;21.77;;;;;;;3.83;100.00;95601.66;5034359;28;20317;-81
2022/11/27 07:29:27;;;;;;;38.40;22.03;;;;;;;3.89;100.00;95611.31;5033975;28;20191;-82
2022/11/27 07:31:54;;;;;;;43.20;22.83;;;;;;;3.91;100.00;95610.22;5033091;28;20245;-83
2022/11/27 07:34:21;;;;;;;37.40;21.17;;;;;;;3.81;100.00;95588.16;5032689;28;20205;-83
2022/11/27 07:36:48;;;;;;;44.67;23.20;;;;;;;3.96;100.00;95607.16;5035031;28;20203;-87
2022/11/27 07:39:16;;;;;;;38.27;22.00;;;;;;;3.97;100.00;95608.78;5032668;28;20211;-83
2022/11/27 07:41:43;;;;;;;42.23;23.70;;;;;;;3.97;100.00;95603.66;5032235;28;20203;-85
2022/11/27 07:44:10;;;;;;;42.13;24.57;;;;;;;3.98;100.00;95598.34;5036466;28;20735;-83
2022/11/27 07:46:38;;;;;;;40.80;23.23;;;;;;;4.02;100.00;95606.56;5033158;28;20211;-85
2022/11/27 07:49:05;;;;;;;41.43;22.60;;;;;;;3.78;100.00;95573.03;5032770;28;20206;-86
2022/11/27 07:51:32;;;;;;;39.90;21.93;;;;;;;4.06;100.00;95605.28;5033604;28;20304;-83
2022/11/27 07:53:59;;;;;;;39.03;21.97;;;;;;;4.14;100.00;95600.19;5038329;28;20209;-82
2022/11/27 07:56:27;;;;;;;40.87;22.70;;;;;;;4.12;100.00;95599.53;5036216;28;20214;-83
2022/11/27 07:58:54;;;;;;;42.60;22.43;;;;;;;4.12;100.00;95609.81;5032677;28;20290;-82
2022/11/27 08:01:21;;;;;;;46.07;23.13;;;;;;;3.95;100.00;95592.72;5034536;28;20199;-83
2022/11/27 08:03:49;;;;;;;44.23;24.27;;;;;;;3.99;100.00;95594.00;5032471;28;20229;-85
2022/11/27 08:06:18;;;;;;;49.37;26.90;;;;;;;4.09;100.00;95593.88;5032163;28;20215;-84
2022/11/27 08:08:45;;;;;;;47.53;25.73;;;;;;;4.12;100.00;95604.69;5033122;28;20215;-85
2022/11/27 08:11:17;;;;;;;45.03;25.03;;;;;;;3.86;100.00;95563.59;5032522;28;20206;-88
2022/11/27 08:13:44;;;;;;;42.63;24.57;;;;;;;4.10;100.00;95598.09;5034666;28;20202;-84
2022/11/27 08:16:11;;;;;;;44.47;24.23;;;;;;;4.25;100.00;95599.09;5033417;28;20233;-82
2022/11/27 08:18:37;;;;;;;47.07;25.90;;;;;;;4.24;100.00;95597.50;5037810;28;20206;-84
2022/11/27 08:21:06;;;;;;;44.90;25.20;;;;;;;4.29;100.00;95606.34;5031539;28;20805;-82
2022/11/27 08:23:33;;;;;;;50.27;26.97;;;;;;;4.14;100.00;95579.59;5031146;28;20219;-83
2022/11/27 08:26:04;;;;;;;51.17;27.17;;;;;;;4.23;100.00;95596.69;5035595;28;20610;-85
2022/11/27 08:28:31;;;;;;;49.43;26.17;;;;;;;4.32;100.00;95607.81;5031737;28;20216;-84
2022/11/27 08:30:59;;;;;;;50.30;26.77;;;;;;;4.34;100.00;95603.31;5031463;28;20195;-84
2022/11/27 08:33:26;;;;;;;51.03;26.90;;;;;;;4.38;100.00;95602.84;5032011;28;20232;-85
2022/11/27 08:35:55;;;;;;;50.30;27.17;;;;;;;4.32;100.00;95582.88;5035160;28;20199;-84
2022/11/27 08:38:27;;;;;;;48.53;26.33;;;;;;;4.41;100.00;95599.97;5032073;28;20199;-85
2022/11/27 08:40:56;;;;;;;50.37;27.33;;;;;;;4.44;100.00;95597.03;5028815;28;20192;-84
2022/11/27 08:43:23;;;;;;;50.33;27.00;;;;;;;4.46;100.00;95600.28;5030549;28;20306;-85
2022/11/27 08:45:51;;;;;;;45.83;26.37;;;;;;;4.51;100.00;95594.66;5031275;28;20285;-84
2022/11/27 08:48:18;;;;;;;48.23;26.47;;;;;;;4.54;100.00;95595.16;5035709;28;20235;-85
2022/11/27 08:50:45;;;;;;;52.77;27.83;;;;;;;4.59;100.00;95594.66;5038641;28;20214;-86
2022/11/27 08:53:12;;;;;;;49.60;26.87;;;;;;;4.39;100.00;95547.84;5035466;28;20203;-84
2022/11/27 08:55:45;;;;;;;51.47;27.20;;;;;;;4.67;99.46;95587.00;5038851;28;20744;-82
2022/11/27 08:58:24;;;;;;;58.43;28.80;;;;;;;4.52;98.98;95561.06;5029846;28;20220;-85
2022/11/27 09:00:51;;;;;;;52.83;27.80;;;;;;;4.72;99.75;95587.31;5032407;28;20205;-84
2022/11/27 09:03:20;;;;;;;44.90;25.80;;;;;;;4.75;99.32;95591.34;5030805;28;20221;-86
2022/11/27 09:05:49;;;;;;;50.10;28.10;;;;;;;4.80;99.89;95573.63;5031112;28;20207;-83
2022/11/27 09:08:19;;;;;;;50.57;27.07;;;;;;;4.63;99.15;95561.72;5034783;28;20203;-83
2022/11/27 09:10:47;;;;;;;48.47;27.63;;;;;;;4.67;98.97;95578.47;5031979;28;20201;-82
2022/11/27 09:13:14;;;;;;;47.97;27.33;;;;;;;4.66;99.47;95584.56;5035296;28;20286;-83
2022/11/27 09:15:41;;;;;;;52.50;27.33;;;;;;;4.75;98.77;95576.69;5036691;28;20259;-84
2022/11/27 09:18:08;;;;;;;50.33;27.63;;;;;;;4.80;98.51;95574.44;5034276;28;20204;-80
2022/11/27 09:20:35;;;;;;;50.13;27.77;;;;;;;4.91;98.43;95568.16;5030874;28;20689;-80
2022/11/27 09:23:01;;;;;;;47.13;27.40;;;;;;;5.01;97.53;95566.25;5035970;28;20198;-80
2022/11/27 09:25:29;;;;;;;47.50;26.67;;;;;;;5.04;97.71;95561.59;5039303;28;20628;-78
2022/11/27 09:27:57;;;;;;;49.20;27.13;;;;;;;5.06;97.74;95551.09;5036061;28;20194;-78
2022/11/27 09:30:26;;;;;;;54.43;27.40;;;;;;;4.99;97.19;95530.34;5036700;28;20207;-79
2022/11/27 09:32:53;;;;;;;50.03;27.87;;;;;;;5.19;96.70;95550.63;5030292;28;20227;-79
2022/11/27 09:35:20;;;;;;;58.17;27.00;;;;;;;5.27;96.72;95551.44;5041320;28;20195;-79
2022/11/27 09:37:47;;;;;;;50.30;27.13;;;;;;;5.36;96.11;95558.19;5038442;28;20200;-80
2022/11/27 09:40:16;;;;;;;46.87;27.90;;;;;;;5.37;95.63;95543.53;5033161;28;20204;-79
2022/11/27 09:42:50;;;;;;;49.60;28.60;;;;;;;5.51;95.50;95553.16;5038692;28;21566;-80
2022/11/27 09:45:18;;;;;;;53.17;29.17;;;;;;;5.67;95.19;95546.19;5033941;28;20216;-79
2022/11/27 09:47:50;;;;;;;55.70;31.07;;;;;;;5.77;94.59;95534.88;5033199;28;20203;-79
2022/11/27 09:50:21;;;;;;;51.03;29.50;;;;;;;5.99;94.15;95545.31;5032430;28;20195;-86
2022/11/27 09:52:52;;;;;;;48.20;29.00;;;;;;;6.18;92.89;95541.50;5035186;28;20278;-78
2022/11/27 09:55:25;;;;;;;50.73;29.20;;;;;;;6.28;91.42;95539.53;5039536;28;20209;-80
2022/11/27 09:57:59;;;;;;;54.83;29.40;;;;;;;6.21;91.22;95529.06;5037152;28;20201;-79
2022/11/27 10:00:28;;;;;;;51.23;28.43;;;;;;;6.27;91.49;95525.81;5029328;28;20240;-81
2022/11/27 10:02:55;;;;;;;54.50;30.70;;;;;;;6.28;90.93;95518.88;5031376;28;20206;-80
2022/11/27 10:05:24;;;;;;;54.77;30.10;;;;;;;5.59;91.27;95468.06;5029309;28;20218;-83
2022/11/27 10:08:16;;;;;;;54.73;29.03;;;;;;;5.50;91.90;95513.69;5031923;28;20206;-86
2022/11/27 10:10:51;;;;;;;49.83;28.30;;;;;;;4.98;94.36;95487.53;5025016;28;20216;-85
2022/11/27 10:13:38;;;;;;;58.03;30.27;;;;;;;5.33;98.08;95524.19;5035442;28;20207;-86
2022/11/27 10:16:20;;;;;;;50.97;29.93;;;;;;;5.51;96.99;95510.13;5029938;28;20198;-85
2022/11/27 10:18:55;;;;;;;58.30;30.90;;;;;;;5.78;96.05;95508.09;5032255;28;20672;-86
2022/11/27 10:21:29;;;;;;;60.03;31.17;;;;;;;5.57;94.13;95499.16;5031888;28;20200;-87
2022/11/27 10:24:02;;;;;;;52.30;30.53;;;;;;;5.27;95.86;95484.44;5028527;28;20208;-88
2022/11/27 10:26:34;;;;;;;57.87;31.80;;;;;;;5.56;96.44;95489.00;5031983;28;20212;-90
2022/11/27 10:29:11;;;;;;;62.47;32.03;;;;;;;5.82;95.29;95483.59;5031079;28;20196;-86
2022/11/27 10:31:47;;;;;;;56.40;31.13;;;;;;;5.81;92.97;95456.19;5032740;28;20242;-86
2022/11/27 10:34:28;;;;;;;52.37;30.70;;;;;;;6.26;92.22;95487.28;5033757;28;21523;-84
2022/11/27 10:36:57;;;;;;;54.93;31.07;;;;;;;6.48;91.32;95481.31;5032630;28;20204;-81
2022/11/27 10:39:32;;;;;;;57.67;31.43;;;;;;;6.70;90.50;95467.56;5028616;28;20220;-83
2022/11/27 10:42:06;;;;;;;57.80;30.07;;;;;;;6.92;89.69;95470.31;5028229;28;20206;-81
2022/11/27 10:44:35;;;;;;;53.73;29.93;;;;;;;7.02;89.56;95457.94;5037579;28;20359;-86
2022/11/27 10:47:07;;;;;;;50.87;29.43;;;;;;;7.13;88.86;95467.88;5029481;28;20214;-84
2022/11/27 10:49:35;;;;;;;51.73;28.97;;;;;;;7.20;87.48;95472.16;5031499;28;20202;-79
2022/11/27 10:52:02;;;;;;;59.33;28.67;;;;;;;7.25;89.33;95472.41;5030993;28;20566;-79
2022/11/27 10:54:34;;;;;;;50.80;27.47;;;;;;;7.22;87.17;95461.63;5032124;28;20202;-83
2022/11/27 10:57:11;;;;;;;44.73;26.73;;;;;;;7.18;86.60;95461.19;5034734;28;20197;-82
2022/11/27 10:59:45;;;;;;;45.73;26.60;;;;;;;7.06;86.33;95454.03;5030411;28;20210;-81
2022/11/27 11:02:29;;;;;;;44.67;26.40;;;;;;;7.05;87.29;95455.00;5032367;28;20210;-84
2022/11/27 11:04:55;;;;;;;43.23;26.73;;;;;;;7.12;86.44;95455.91;5027971;28;20207;-80
2022/11/27 11:07:26;;;;;;;54.33;28.07;;;;;;;7.12;86.59;95448.16;5029040;28;20331;-79
2022/11/27 11:09:54;;;;;;;46.33;26.83;;;;;;;7.06;86.64;95438.53;5032801;28;20679;-83
2022/11/27 11:12:22;;;;;;;48.60;27.93;;;;;;;7.15;86.25;95452.97;5035263;28;20195;-82
2022/11/27 11:14:54;;;;;;;45.60;26.40;;;;;;;6.88;86.77;95431.09;5030766;28;20666;-84
2022/11/27 11:17:27;;;;;;;45.47;25.20;;;;;;;6.97;86.81;95445.56;5041090;28;20198;-88
2022/11/27 11:19:54;;;;;;;48.50;27.03;;;;;;;6.90;86.67;95444.63;5029329;28;20688;-89
2022/11/27 11:22:22;;;;;;;45.77;25.37;;;;;;;6.89;87.46;95444.81;5033795;28;20195;-87
2022/11/27 11:24:51;;;;;;;48.27;26.40;;;;;;;6.90;87.32;95433.53;5037514;28;20231;-89
2022/11/27 11:27:21;;;;;;;44.87;24.90;;;;;;;6.65;86.86;95397.56;5034486;28;20210;-89
2022/11/27 11:29:51;;;;;;;44.37;25.07;;;;;;;6.61;87.13;95401.47;5031153;28;20249;-89